Time;durP1;ratioP1;P1;durP2;ratioP2;P2;SDS_P1;SDS_P2;PMS_P1;PMS_P2;Temp;Humidity;BMP_temperature;BMP_pressure;BME280_temperature;BME280_humidity;BME280_pressure;Samples;Min_cycle;Max_cycle;Signal;HPM_P1;HPM_P2
2022/07/13 00:01:56;;;;;;;8.80;5.10;;;21.30;99.90;;;19.28;100.00;101140.69;5058589;28;20044;-81
2022/07/13 00:04:23;;;;;;;10.73;4.88;;;21.30;99.90;;;19.26;100.00;101148.34;5083914;28;20040;-81
2022/07/13 00:06:51;;;;;;;9.02;5.32;;;21.30;99.90;;;19.23;100.00;101148.78;5083176;28;20042;-81
2022/07/13 00:09:18;;;;;;;9.73;4.72;;;21.30;99.90;;;19.23;100.00;101143.28;5066146;28;20128;-81
2022/07/13 00:11:46;;;;;;;7.75;5.05;;;21.30;99.90;;;19.25;100.00;101141.16;5077398;28;20126;-81
2022/07/13 00:14:13;;;;;;;9.43;4.65;;;21.30;99.90;;;19.25;100.00;101138.41;5078604;28;20133;-81
2022/07/13 00:16:41;;;;;;;8.25;5.25;;;21.30;99.90;;;19.26;100.00;101131.78;5075265;28;20493;-81
2022/07/13 00:19:08;;;;;;;9.77;5.68;;;21.30;99.90;;;19.30;100.00;101133.03;5078621;28;20124;-81
2022/07/13 00:21:35;;;;;;;7.53;5.10;;;21.30;99.90;;;19.33;100.00;101132.56;5076227;28;20051;-81
2022/07/13 00:24:02;;;;;;;10.50;5.07;;;21.30;99.90;;;19.33;100.00;101127.91;5077112;28;20040;-80
2022/07/13 00:26:29;;;;;;;7.50;4.88;;;21.30;99.90;;;19.37;100.00;101122.75;5057449;28;20051;-81
2022/07/13 00:28:58;;;;;;;8.27;5.13;;;21.30;99.90;;;19.42;100.00;101119.31;5068367;28;20125;-81
2022/07/13 00:31:25;;;;;;;8.15;4.85;;;21.30;99.90;;;19.47;100.00;101120.31;5086529;28;20040;-81
2022/07/13 00:33:52;;;;;;;7.65;4.88;;;21.30;99.90;;;19.46;100.00;101123.31;5068644;28;20048;-81
2022/07/13 00:36:19;;;;;;;6.93;4.88;;;21.30;99.90;;;19.45;100.00;101146.47;5064198;28;20138;-81
2022/07/13 00:38:48;;;;;;;7.03;5.05;;;21.30;99.90;;;19.44;100.00;101151.16;5057730;28;20036;-81
2022/07/13 00:41:15;;;;;;;6.63;4.35;;;21.30;99.90;;;19.46;100.00;101149.00;5070105;28;20048;-81
2022/07/13 00:43:42;;;;;;;9.18;5.38;;;21.30;99.90;;;19.43;100.00;101130.13;5056880;28;20042;-81
2022/07/13 00:46:11;;;;;;;8.70;5.15;;;21.30;99.90;;;19.43;100.00;101127.38;5087121;28;20091;-81
2022/07/13 00:48:40;;;;;;;8.85;5.43;;;21.30;99.90;;;19.41;100.00;101121.22;5057566;28;20052;-81
2022/07/13 00:51:07;;;;;;;8.60;5.22;;;21.30;99.90;;;19.38;100.00;101099.63;5061493;28;20041;-81
2022/07/13 00:53:40;;;;;;;7.47;5.03;;;21.30;99.90;;;19.41;100.00;101088.09;5059498;28;20037;-81
2022/07/13 00:56:07;;;;;;;7.50;5.68;;;21.30;99.90;;;19.47;100.00;101087.19;5065109;28;20137;-81
2022/07/13 00:58:35;;;;;;;7.88;5.18;;;21.30;99.90;;;19.43;100.00;101083.19;5059962;28;20131;-81
2022/07/13 01:01:02;;;;;;;7.32;5.10;;;21.30;99.90;;;19.42;100.00;101087.03;5060541;28;20080;-81
2022/07/13 01:03:30;;;;;;;7.00;5.03;;;21.30;99.90;;;19.38;100.00;101091.34;5064127;28;20389;-81
2022/07/13 01:05:59;;;;;;;6.35;4.85;;;21.30;99.90;;;19.36;100.00;101087.09;5058171;28;20056;-81
2022/07/13 01:08:27;;;;;;;10.23;4.90;;;21.30;99.90;;;19.40;100.00;101083.69;5061951;28;20066;-81
2022/07/13 01:10:55;;;;;;;6.45;4.75;;;21.30;99.90;;;19.38;100.00;101080.31;5068205;28;20400;-80
2022/07/13 01:13:24;;;;;;;11.15;5.20;;;21.30;99.90;;;19.39;100.00;101095.78;5082784;28;20452;-81
2022/07/13 01:15:51;;;;;;;8.25;5.15;;;21.30;99.90;;;19.42;100.00;101091.69;5063883;28;20040;-80
2022/07/13 01:18:19;;;;;;;9.52;5.10;;;21.20;99.90;;;19.41;100.00;101085.34;5083102;28;20559;-81
2022/07/13 01:20:48;;;;;;;6.68;5.00;;;21.30;99.90;;;19.41;100.00;101090.88;5083125;28;20036;-81
2022/07/13 01:23:18;;;;;;;8.90;5.22;;;21.30;99.90;;;19.37;100.00;101094.31;5066755;28;20491;-81
2022/07/13 01:25:45;;;;;;;6.95;5.20;;;21.30;99.90;;;19.32;100.00;101097.75;5082799;28;20367;-81
2022/07/13 01:28:14;;;;;;;8.68;5.60;;;21.30;99.90;;;19.32;100.00;101092.22;5062530;28;20040;-81
2022/07/13 01:30:41;;;;;;;8.95;5.38;;;21.20;99.90;;;19.26;100.00;101090.41;5068833;28;20048;-81
2022/07/13 01:33:08;;;;;;;8.30;5.55;;;21.20;99.90;;;19.22;100.00;101090.00;5084005;28;20040;-80
2022/07/13 01:35:36;;;;;;;8.05;5.35;;;21.20;99.90;;;19.17;100.00;101089.84;5088944;28;20059;-81
2022/07/13 01:38:03;;;;;;;8.18;5.10;;;21.20;99.90;;;19.15;100.00;101083.69;5082335;28;20113;-81
2022/07/13 01:40:31;;;;;;;7.32;4.95;;;21.20;99.90;;;19.13;100.00;101083.09;5062954;28;20113;-80
2022/07/13 01:42:58;;;;;;;8.27;5.78;;;21.20;99.90;;;19.11;100.00;101076.97;5059205;28;22022;-81
2022/07/13 01:45:26;;;;;;;11.20;6.03;;;21.20;99.90;;;19.10;100.00;101067.84;5070829;28;20054;-81
2022/07/13 01:47:55;;;;;;;10.65;5.50;;;21.20;99.90;;;19.08;100.00;101066.41;5065486;28;20068;-81
2022/07/13 01:50:24;;;;;;;7.55;4.93;;;21.10;99.90;;;19.07;100.00;101065.53;5060636;28;20032;-81
2022/07/13 01:52:52;;;;;;;8.83;5.43;;;21.10;99.90;;;19.09;100.00;101065.31;5079009;28;20047;-81
2022/07/13 01:55:20;;;;;;;8.82;5.75;;;21.10;99.90;;;19.13;100.00;101058.25;5069256;28;20047;-81
2022/07/13 01:57:49;;;;;;;7.90;5.60;;;21.10;99.90;;;19.23;100.00;101043.94;5068812;28;20131;-81
2022/07/13 02:00:19;;;;;;;9.65;5.65;;;21.10;99.90;;;19.30;100.00;101044.69;5051829;28;20051;-80
2022/07/13 02:02:49;;;;;;;8.13;5.28;;;21.10;99.90;;;19.32;100.00;101045.31;5058473;28;20048;-81
2022/07/13 02:05:20;;;;;;;7.82;5.10;;;21.10;99.90;;;19.33;100.00;101041.50;5060632;28;20490;-81
2022/07/13 02:07:47;;;;;;;7.47;5.10;;;21.20;99.90;;;19.34;100.00;101035.75;5064296;28;20044;-81
2022/07/13 02:10:15;;;;;;;9.82;5.25;;;21.20;99.90;;;19.33;100.00;101044.25;5070404;28;20048;-81
2022/07/13 02:12:42;;;;;;;8.95;5.60;;;21.20;99.90;;;19.29;100.00;101043.88;5060007;28;20127;-80
2022/07/13 02:15:12;;;;;;;8.68;5.13;;;21.20;99.90;;;19.28;100.00;101042.16;5073912;28;20071;-81
2022/07/13 02:17:40;;;;;;;9.13;5.15;;;21.20;99.90;;;19.28;100.00;101041.34;5086200;28;20051;-81
2022/07/13 02:20:09;;;;;;;7.60;5.18;;;21.10;99.90;;;19.23;100.00;101041.16;5077395;28;20047;-80
2022/07/13 02:22:43;;;;;;;8.60;4.95;;;21.10;99.90;;;19.22;100.00;101047.78;5071394;28;20063;-80
2022/07/13 02:25:11;;;;;;;10.18;5.05;;;21.10;99.90;;;19.20;100.00;101053.53;5073807;28;20149;-81
2022/07/13 02:27:40;;;;;;;8.23;5.30;;;21.10;99.90;;;19.19;100.00;101054.59;5069580;28;20047;-80
2022/07/13 02:30:11;;;;;;;8.48;5.35;;;21.10;99.90;;;19.20;100.00;101050.75;5078985;28;20175;-80
2022/07/13 02:32:39;;;;;;;7.85;5.40;;;21.10;99.90;;;19.20;100.00;101049.94;5071832;28;20036;-80
2022/07/13 02:35:08;;;;;;;8.48;5.70;;;21.10;99.90;;;19.17;100.00;101042.09;5067940;28;20078;-80
2022/07/13 02:37:36;;;;;;;8.20;5.60;;;21.10;99.90;;;19.16;100.00;101027.47;5070980;28;20044;-80
2022/07/13 02:40:05;;;;;;;9.65;5.28;;;21.10;99.90;;;19.13;100.00;101023.25;5063421;28;20093;-80
2022/07/13 02:42:33;;;;;;;9.05;5.60;;;21.10;99.90;;;19.11;100.00;101016.25;5070774;28;20484;-80
2022/07/13 02:45:00;;;;;;;7.93;5.20;;;21.00;99.90;;;19.10;100.00;101026.47;5073410;28;20051;-80
2022/07/13 02:47:28;;;;;;;12.55;5.07;;;21.10;99.90;;;19.08;100.00;101012.06;5088831;28;20116;-81
2022/07/13 02:49:57;;;;;;;7.95;5.13;;;21.00;99.90;;;19.06;100.00;101016.97;5051848;28;20040;-80
2022/07/13 02:52:25;;;;;;;9.05;5.22;;;21.10;99.90;;;19.07;100.00;101015.03;5049645;28;20048;-81
2022/07/13 02:54:52;;;;;;;7.88;5.10;;;21.10;99.90;;;19.06;100.00;101011.44;5060830;28;20144;-81
2022/07/13 02:57:19;;;;;;;9.48;5.13;;;21.10;99.90;;;19.06;100.00;101010.59;5067790;28;20044;-80
2022/07/13 02:59:53;;;;;;;6.75;5.03;;;21.10;99.90;;;19.05;100.00;101004.22;5052690;28;20106;-80
2022/07/13 03:02:20;;;;;;;7.82;4.97;;;21.00;99.90;;;19.02;100.00;101004.69;5064749;28;20044;-81
2022/07/13 03:04:49;;;;;;;7.70;5.20;;;21.00;99.90;;;19.01;100.00;101003.00;5062166;28;20438;-81
2022/07/13 03:07:17;;;;;;;9.77;5.18;;;20.90;99.90;;;19.01;100.00;100997.47;5051567;28;20056;-80
2022/07/13 03:09:44;;;;;;;8.20;5.25;;;21.00;99.90;;;19.01;100.00;101003.00;5064599;28;20051;-80
2022/07/13 03:12:11;;;;;;;7.10;5.25;;;21.00;99.90;;;19.02;100.00;101003.84;5085222;28;20077;-81
2022/07/13 03:14:41;;;;;;;8.82;5.10;;;21.00;99.90;;;18.98;100.00;101008.97;5072598;28;20129;-80
2022/07/13 03:17:08;;;;;;;9.45;5.18;;;21.00;99.90;;;18.99;100.00;101007.06;5059081;28;20083;-81
2022/07/13 03:19:35;;;;;;;7.70;4.80;;;21.00;99.90;;;18.98;100.00;101002.59;5057713;28;20049;-81
2022/07/13 03:22:05;;;;;;;8.43;5.25;;;20.90;99.90;;;19.01;100.00;101003.00;5070175;28;20131;-80
2022/07/13 03:24:34;;;;;;;7.68;4.90;;;21.00;99.90;;;18.99;100.00;100987.75;5063978;28;20058;-81
2022/07/13 03:27:02;;;;;;;9.27;4.93;;;20.90;99.90;;;18.97;100.00;100982.47;5067921;28;20486;-80
2022/07/13 03:29:29;;;;;;;10.32;5.22;;;21.00;99.90;;;18.97;100.00;100985.22;5084759;28;20058;-80
2022/07/13 03:31:57;;;;;;;6.95;5.15;;;21.00;99.90;;;19.00;100.00;100984.78;5041107;28;20490;-80
2022/07/13 03:34:24;;;;;;;8.15;5.05;;;20.90;99.90;;;18.98;100.00;100986.88;5070939;28;20036;-80
2022/07/13 03:36:51;;;;;;;8.30;4.60;;;21.00;99.90;;;18.95;100.00;100990.97;5066511;28;20101;-80
2022/07/13 03:39:20;;;;;;;7.68;5.03;;;20.90;99.90;;;18.95;100.00;100988.19;5065408;28;20044;-80
2022/07/13 03:41:47;;;;;;;9.50;4.75;;;20.90;99.90;;;18.97;100.00;100985.22;5059266;28;20067;-80
2022/07/13 03:44:15;;;;;;;7.45;4.60;;;20.90;99.90;;;18.94;100.00;100974.63;5059023;28;20571;-80
2022/07/13 03:46:43;;;;;;;8.10;5.07;;;20.90;99.90;;;18.97;100.00;100978.88;5047045;28;20067;-81
2022/07/13 03:49:10;;;;;;;7.18;4.88;;;20.90;99.90;;;18.98;100.00;100975.03;5057356;28;20135;-81
2022/07/13 03:51:38;;;;;;;8.20;4.60;;;20.90;99.90;;;18.96;100.00;100978.00;5072237;28;20074;-81
2022/07/13 03:54:06;;;;;;;8.90;4.88;;;20.90;99.90;;;18.96;100.00;100972.50;5070410;28;20594;-81
2022/07/13 03:56:34;;;;;;;6.25;4.63;;;20.90;99.90;;;18.98;100.00;100964.81;5155657;22;20048;-85
2022/07/13 03:59:06;;;;;;;9.02;5.07;;;20.90;99.90;;;18.96;100.00;100966.97;5038637;28;20092;-86
2022/07/13 04:01:40;;;;;;;9.13;5.25;;;20.90;99.90;;;18.97;100.00;100974.19;5028830;28;20451;-87
2022/07/13 04:04:08;;;;;;;11.10;5.07;;;20.90;99.90;;;18.95;100.00;100968.06;5031380;28;20049;-84
2022/07/13 04:06:35;;;;;;;7.10;4.80;;;20.90;99.90;;;18.93;100.00;100964.69;5015918;28;20041;-86
2022/07/13 04:09:05;;;;;;;8.48;4.60;;;20.90;99.90;;;18.99;100.00;100965.69;5021594;28;20073;-86
2022/07/13 04:11:34;;;;;;;7.30;4.43;;;20.90;99.90;;;19.00;100.00;100972.88;5008890;28;20137;-86
2022/07/13 04:14:01;;;;;;;7.72;4.90;;;20.90;99.90;;;19.02;100.00;100971.59;5006155;28;20052;-86
2022/07/13 04:16:31;;;;;;;8.63;4.57;;;20.90;99.90;;;19.04;100.00;100974.97;5024908;28;20045;-85
2022/07/13 04:18:58;;;;;;;10.10;5.30;;;20.90;99.90;;;19.04;100.00;100969.44;5028158;28;20041;-86
2022/07/13 04:21:26;;;;;;;8.38;4.30;;;20.90;99.90;;;19.03;100.00;100970.50;5027540;28;20045;-87
2022/07/13 04:23:53;;;;;;;6.78;4.65;;;20.90;99.90;;;19.05;100.00;100960.09;5011415;28;20068;-87
2022/07/13 04:26:21;;;;;;;9.52;4.78;;;20.90;99.90;;;19.13;100.00;100959.78;5024587;28;20136;-87
2022/07/13 04:28:49;;;;;;;8.45;4.57;;;20.90;99.90;;;19.21;100.00;100958.63;5016738;28;20048;-88
2022/07/13 04:31:20;;;;;;;7.88;4.55;;;20.90;99.90;;;19.29;100.00;100963.00;5009069;28;20049;-87
2022/07/13 04:33:48;;;;;;;7.00;4.13;;;20.90;99.90;;;19.39;100.00;100954.16;5011244;28;20103;-86
2022/07/13 04:36:17;;;;;;;5.03;3.65;;;20.90;99.90;;;19.46;100.00;100949.41;5010865;28;20060;-86
2022/07/13 04:38:45;;;;;;;7.03;4.10;;;21.00;99.90;;;19.60;100.00;100948.13;5010206;28;20091;-85
2022/07/13 04:41:13;;;;;;;5.18;3.50;;;21.00;99.90;;;19.76;100.00;100948.56;5011829;28;20073;-86
2022/07/13 04:43:45;;;;;;;4.88;3.42;;;21.10;99.90;;;19.91;100.00;100949.84;5011732;28;20088;-85
2022/07/13 04:46:15;;;;;;;10.30;3.42;;;21.00;99.90;;;20.09;100.00;100942.56;5030151;28;20056;-89
2022/07/13 04:48:44;;;;;;;7.78;4.00;;;21.10;99.90;;;20.25;100.00;100941.84;5015166;28;20049;-87
2022/07/13 04:51:13;;;;;;;6.25;3.30;;;21.10;99.90;;;20.36;100.00;100944.88;5040335;28;20495;-88
2022/07/13 04:53:42;;;;;;;5.82;3.13;;;21.20;99.90;;;20.38;100.00;100938.00;5021385;28;20044;-87
2022/07/13 04:56:13;;;;;;;5.85;3.13;;;21.20;99.90;;;20.49;96.44;100939.09;5023249;28;20044;-87
2022/07/13 04:58:41;;;;;;;4.97;3.13;;;21.30;99.90;;;20.51;97.70;100939.72;5024466;28;20079;-87
2022/07/13 05:01:08;;;;;;;5.68;2.80;;;21.30;99.90;;;20.50;96.58;100932.47;5037403;28;20104;-87
2022/07/13 05:03:37;;;;;;;5.50;2.80;;;21.30;99.90;;;20.46;96.63;100937.66;5011247;28;20045;-89
2022/07/13 05:06:05;;;;;;;5.35;2.47;;;21.40;99.90;;;20.44;94.68;100928.75;5038136;28;21147;-85
2022/07/13 05:08:33;;;;;;;4.35;2.40;;;21.40;99.90;;;20.45;93.23;100921.31;5017444;28;20136;-86
2022/07/13 05:11:00;;;;;;;5.88;2.65;;;21.40;99.90;;;20.46;90.43;100925.75;5022211;28;20407;-85
2022/07/13 05:13:28;;;;;;;4.13;2.25;;;21.40;99.90;;;20.48;89.14;100924.41;5041194;28;20053;-85
2022/07/13 05:15:58;;;;;;;4.00;2.00;;;21.40;99.90;;;20.48;90.66;100929.13;5047873;28;20126;-85
2022/07/13 05:18:25;;;;;;;5.68;2.30;;;21.40;99.90;;;20.52;89.75;100927.53;5048253;28;20552;-85
2022/07/13 05:20:56;;;;;;;4.95;2.28;;;21.50;99.90;;;20.54;86.68;100928.16;5047783;28;20095;-85
2022/07/13 05:23:24;;;;;;;3.67;2.20;;;21.50;99.20;;;20.57;87.76;100922.16;5031158;28;20465;-85
2022/07/13 05:25:51;;;;;;;7.80;2.15;;;21.50;99.80;;;20.64;84.28;100927.59;5030987;28;20596;-85
2022/07/13 05:28:18;;;;;;;5.50;2.10;;;21.50;97.70;;;20.75;83.26;100928.66;5030770;28;20072;-85
2022/07/13 05:30:45;;;;;;;5.18;2.22;;;21.50;97.30;;;20.82;83.39;100927.44;5030556;28;20048;-85
2022/07/13 05:33:16;;;;;;;7.00;2.03;;;21.60;98.10;;;20.90;82.62;100931.75;5031121;28;20098;-85
2022/07/13 05:35:44;;;;;;;7.97;3.15;;;21.60;97.60;;;20.97;81.92;100926.09;5048062;28;20061;-85
2022/07/13 05:38:14;;;;;;;3.88;2.25;;;21.60;97.40;;;21.03;82.31;100928.72;5034571;28;20056;-85
2022/07/13 05:40:41;;;;;;;4.20;2.15;;;21.60;98.00;;;21.07;81.58;100932.69;5034426;28;20099;-85
2022/07/13 05:43:08;;;;;;;7.15;2.25;;;21.70;97.20;;;21.18;80.27;100927.38;5034759;28;20056;-86
2022/07/13 05:45:35;;;;;;;7.00;2.10;;;21.70;97.00;;;21.43;80.81;100927.03;5034634;28;20144;-85
2022/07/13 05:48:03;;;;;;;5.13;2.08;;;21.80;97.80;;;21.78;80.58;100926.91;5034798;28;20052;-85
2022/07/13 05:50:31;;;;;;;3.90;2.10;;;21.80;98.20;;;22.15;78.18;100929.22;5050464;28;20135;-85
2022/07/13 05:52:58;;;;;;;5.20;2.22;;;21.90;97.10;;;22.42;73.42;100926.63;5034711;28;20449;-85
2022/07/13 05:55:27;;;;;;;5.57;1.92;;;22.00;94.70;;;22.62;73.49;100919.72;5034454;28;20041;-85
2022/07/13 05:57:54;;;;;;;3.83;2.03;;;22.10;95.40;;;22.75;71.66;100912.94;5052467;28;20040;-86
2022/07/13 06:00:21;;;;;;;5.35;1.90;;;22.10;93.90;;;23.54;70.48;100920.06;5051748;28;20125;-85
2022/07/13 06:02:48;;;;;;;4.88;2.00;;;22.20;94.80;;;26.60;61.68;100904.25;5052534;28;20086;-85
2022/07/13 06:05:15;;;;;;;3.47;1.80;;;22.50;95.00;;;28.73;52.63;100902.34;5052303;28;20037;-85
2022/07/13 06:07:43;;;;;;;4.03;1.90;;;23.00;93.40;;;27.68;52.97;100899.88;5052401;28;20047;-85
2022/07/13 06:10:10;;;;;;;4.63;1.98;;;23.30;90.60;;;26.98;56.44;100901.88;5051533;28;20231;-85
2022/07/13 06:12:39;;;;;;;4.63;1.80;;;23.50;91.20;;;28.11;52.55;100896.50;5052197;28;20048;-85
2022/07/13 06:15:07;;;;;;;7.30;2.10;;;23.70;90.20;;;27.81;54.93;100903.13;5052163;28;20041;-85
2022/07/13 06:17:35;;;;;;;3.25;1.80;;;23.90;90.50;;;27.74;51.55;100906.28;5045159;28;20124;-86
2022/07/13 06:20:02;;;;;;;5.47;1.80;;;24.10;88.00;;;28.89;50.55;100899.38;5014828;28;20037;-86
2022/07/13 06:22:29;;;;;;;5.20;2.15;;;24.30;87.80;;;30.75;45.87;100893.41;5032086;28;20494;-86
2022/07/13 06:24:56;;;;;;;4.38;2.20;;;24.70;87.40;;;31.67;44.21;100899.06;5014060;28;20132;-86
2022/07/13 06:27:23;;;;;;;4.20;2.33;;;25.10;86.90;;;30.48;45.67;100894.19;5032083;28;20049;-86
2022/07/13 06:29:52;;;;;;;4.35;1.70;;;25.40;85.50;;;28.44;49.48;100902.34;5031309;28;20073;-86
2022/07/13 06:32:19;;;;;;;3.33;1.90;;;25.40;84.90;;;27.13;53.77;100906.56;5032036;28;20056;-86
2022/07/13 06:34:46;;;;;;;4.30;2.10;;;25.30;85.60;;;26.34;55.38;100890.31;5031969;28;20498;-87
2022/07/13 06:37:14;;;;;;;3.63;1.70;;;25.30;84.90;;;25.77;55.76;100892.25;5014085;28;20045;-86
2022/07/13 06:39:41;;;;;;;7.40;1.83;;;25.10;83.80;;;25.31;59.55;100898.56;5013059;28;20629;-87
2022/07/13 06:42:09;;;;;;;4.03;1.85;;;25.00;86.10;;;24.98;61.25;100906.22;5031520;28;20061;-86
2022/07/13 06:44:36;;;;;;;8.13;1.90;;;24.90;86.60;;;24.85;61.42;100908.66;5013867;28;20049;-87
2022/07/13 06:47:05;;;;;;;3.80;2.00;;;24.80;86.10;;;24.79;60.73;100910.59;5031632;28;20524;-86
2022/07/13 06:49:32;;;;;;;3.22;1.73;;;24.70;85.20;;;24.66;61.83;100917.47;5030908;28;20041;-87
2022/07/13 06:51:59;;;;;;;2.83;1.75;;;24.70;86.50;;;24.57;63.25;100917.13;5031741;28;20041;-87
2022/07/13 06:54:26;;;;;;;3.80;2.00;;;24.60;87.60;;;24.43;62.01;100910.31;5031655;28;20038;-86
2022/07/13 06:56:53;;;;;;;5.10;2.20;;;24.50;86.20;;;24.32;62.75;100914.13;5013510;28;20085;-87
2022/07/13 06:59:20;;;;;;;3.78;1.60;;;24.40;87.00;;;24.10;64.85;100917.84;5030668;28;20041;-87
2022/07/13 07:01:48;;;;;;;4.93;1.92;;;24.30;88.50;;;23.99;66.47;100922.50;5031484;28;20045;-87
2022/07/13 07:04:17;;;;;;;4.57;2.10;;;24.30;89.30;;;23.97;66.16;100919.16;5031486;28;20083;-87
2022/07/13 07:06:44;;;;;;;4.93;1.83;;;24.20;88.60;;;24.01;66.88;100913.91;5029704;28;20127;-87
2022/07/13 07:09:11;;;;;;;3.60;1.90;;;24.20;89.50;;;24.02;67.43;100911.94;5030548;28;20088;-87
2022/07/13 07:11:38;;;;;;;5.00;2.13;;;24.10;90.20;;;23.99;66.46;100910.53;5031311;28;20498;-87
2022/07/13 07:14:05;;;;;;;5.93;2.10;;;24.10;89.90;;;23.97;67.75;100896.91;5031315;28;20042;-86
2022/07/13 07:16:32;;;;;;;4.00;2.00;;;24.10;90.30;;;24.11;67.75;100913.97;5031110;28;20045;-86
2022/07/13 07:19:00;;;;;;;3.88;2.15;;;24.10;91.20;;;24.29;65.98;100909.94;5030304;28;20132;-86
2022/07/13 07:21:29;;;;;;;5.50;2.13;;;24.10;90.00;;;24.58;67.26;100910.44;5031002;28;20498;-86
2022/07/13 07:23:57;;;;;;;5.97;2.00;;;24.10;92.20;;;24.76;68.08;100897.19;5031048;28;20042;-87
2022/07/13 07:26:24;;;;;;;5.22;2.10;;;24.20;93.00;;;24.78;65.69;100904.16;5029389;28;20049;-86
2022/07/13 07:28:51;;;;;;;4.75;2.58;;;24.20;90.90;;;24.77;63.56;100899.72;5030179;28;20052;-86
2022/07/13 07:31:18;;;;;;;6.53;2.33;;;24.20;89.30;;;24.92;62.63;100904.53;5030967;28;20147;-86
2022/07/13 07:33:45;;;;;;;4.07;2.20;;;24.20;89.00;;;25.10;62.15;100905.16;5030859;28;20107;-86
2022/07/13 07:36:12;;;;;;;4.35;2.10;;;24.20;88.50;;;25.17;62.04;100908.53;5030760;28;20037;-86
2022/07/13 07:38:41;;;;;;;3.50;2.10;;;24.30;88.70;;;25.36;62.33;100895.81;5030104;28;20414;-86
2022/07/13 07:41:10;;;;;;;5.00;2.17;;;24.40;89.30;;;25.56;61.65;100888.59;5030762;28;20049;-87
2022/07/13 07:43:37;;;;;;;3.88;1.85;;;24.50;89.10;;;25.64;61.37;100895.56;5030646;28;20044;-87
2022/07/13 07:46:04;;;;;;;5.63;2.33;;;24.60;88.80;;;25.75;60.97;100897.25;5030463;28;20099;-87
2022/07/13 07:48:31;;;;;;;4.32;2.38;;;24.70;88.20;;;25.87;60.66;100885.84;5029742;28;20144;-87
2022/07/13 07:50:59;;;;;;;4.25;2.10;;;24.90;87.90;;;25.83;60.54;100893.09;5030534;28;20049;-87
2022/07/13 07:53:26;;;;;;;4.85;2.47;;;24.90;87.60;;;25.77;60.83;100888.63;5012655;28;20095;-87
2022/07/13 07:55:55;;;;;;;6.97;2.20;;;24.90;88.10;;;25.75;60.86;100884.16;5030274;28;20261;-87
2022/07/13 07:58:22;;;;;;;6.60;2.50;;;25.00;87.80;;;25.67;62.97;100887.50;5029457;28;20121;-87
2022/07/13 08:00:49;;;;;;;4.30;2.20;;;25.00;89.60;;;25.61;62.12;100891.41;5030185;28;20076;-87
2022/07/13 08:03:16;;;;;;;6.03;2.53;;;24.90;88.30;;;25.68;59.83;100900.34;5030406;28;20077;-87
2022/07/13 08:05:48;;;;;;;5.72;2.00;;;24.90;86.60;;;25.92;60.40;100886.69;5030215;28;20128;-88
2022/07/13 08:08:16;;;;;;;6.22;2.17;;;25.00;87.30;;;26.03;59.14;100895.09;5029907;28;20052;-88
2022/07/13 08:10:43;;;;;;;5.63;2.35;;;25.00;86.50;;;26.14;60.64;100900.38;5026726;28;20043;-87
2022/07/13 08:13:12;;;;;;;6.18;2.35;;;25.00;87.90;;;26.15;63.38;100890.06;5030218;28;20077;-88
2022/07/13 08:15:39;;;;;;;9.38;2.42;;;25.10;90.00;;;26.06;58.86;100886.97;5030036;28;20048;-88
2022/07/13 08:18:06;;;;;;;7.60;2.70;;;25.10;86.00;;;26.02;59.53;100885.03;5012298;28;20050;-88
2022/07/13 08:20:33;;;;;;;5.50;2.38;;;25.10;86.60;;;25.97;59.36;100883.09;5029099;28;20080;-87
2022/07/13 08:23:01;;;;;;;5.78;2.30;;;25.10;86.20;;;25.86;59.85;100875.81;5028049;28;20796;-87
2022/07/13 08:25:28;;;;;;;7.10;2.30;;;25.10;86.50;;;25.60;59.62;100883.31;5029803;28;20045;-88
2022/07/13 08:27:55;;;;;;;7.15;2.33;;;25.10;85.70;;;25.48;61.99;100883.56;5012076;28;20053;-88
2022/07/13 08:30:24;;;;;;;5.32;2.38;;;25.00;86.60;;;25.52;60.55;100884.69;5029151;28;20045;-88
2022/07/13 08:32:51;;;;;;;5.50;2.50;;;25.00;86.30;;;25.53;60.23;100884.41;5029919;28;20076;-88
2022/07/13 08:41:15;;;;;;;5.28;2.40;;;25.00;84.50;;;25.74;60.34;100884.41;5087165;27;20495;-87
2022/07/13 08:43:42;;;;;;;6.28;2.40;;;25.10;86.60;;;25.68;61.41;100886.41;5066844;28;20040;-87
2022/07/13 08:46:10;;;;;;;8.38;2.58;;;25.10;87.50;;;25.59;61.64;100893.63;5066907;28;20048;-87
2022/07/13 08:48:42;;;;;;;7.05;2.50;;;25.10;87.50;;;25.53;61.33;100889.13;5066083;28;20048;-88
2022/07/13 08:51:10;;;;;;;6.57;2.38;;;25.00;87.00;;;25.58;62.96;100883.56;5066860;28;20048;-87
2022/07/13 08:53:37;;;;;;;4.80;2.50;;;25.10;88.50;;;25.65;60.27;100895.31;5066762;28;20045;-87
2022/07/13 08:56:05;;;;;;;6.00;2.28;;;25.10;86.10;;;25.83;61.06;100881.94;5066655;28;20052;-87
2022/07/13 08:58:37;;;;;;;8.52;2.75;;;25.10;87.20;;;26.04;60.25;100880.00;5065921;28;20045;-86
2022/07/13 09:01:05;;;;;;;5.20;2.60;;;25.10;86.80;;;26.16;63.63;100879.72;5065195;28;20758;-85
2022/07/13 09:07:32;;;;;;;6.22;2.33;;;25.30;87.30;;;26.17;58.73;100867.47;5066336;28;20131;-85
2022/07/13 09:10:02;;;;;;;6.63;2.78;;;25.40;85.00;;;26.10;57.81;100881.66;5065583;28;20659;-84
2022/07/13 09:12:30;;;;;;;4.22;2.30;;;25.40;84.30;;;26.14;58.59;100885.56;5066432;28;20036;-82
2022/07/13 09:15:01;;;;;;;5.07;2.63;;;25.40;84.70;;;26.22;58.44;100882.25;5066272;28;20472;-87
2022/07/13 09:17:36;;;;;;;;;;;25.40;85.00;;;26.41;59.87;100876.09;5066816;28;20116;-85
2022/07/13 09:20:21;;;;;;;4.70;2.17;;;25.50;86.10;;;26.46;58.19;100873.25;5065416;28;19924;-88
2022/07/13 09:22:51;;;;;;;6.82;2.45;;;25.60;84.10;;;26.33;59.31;100869.09;5066278;28;20033;-87
2022/07/13 09:25:31;;;;;;;8.40;2.70;;;25.60;85.60;;;26.29;58.54;100874.44;5066146;28;20047;-88
2022/07/13 09:28:04;;;;;;;5.07;2.40;;;25.50;84.70;;;26.28;61.91;100869.13;5066098;28;20064;-88
2022/07/13 09:30:34;;;;;;;4.93;2.47;;;25.60;88.20;;;26.30;58.95;100880.84;5065217;28;20051;-87
2022/07/13 09:33:02;;;;;;;9.02;2.92;;;25.60;85.10;;;26.39;60.80;100873.56;5066024;28;20075;-88
2022/07/13 09:35:46;;;;;;;5.38;2.70;;;25.60;87.10;;;26.49;60.64;100873.53;5065871;28;20044;-87
2022/07/13 09:38:30;;;;;;;8.68;2.90;;;25.70;86.80;;;26.60;60.95;100874.38;5065575;28;20048;-88
2022/07/13 09:40:58;;;;;;;7.15;2.80;;;25.60;87.50;;;26.55;60.20;100865.16;5065661;28;20127;-88
2022/07/13 09:46:11;;;;;;;5.68;2.95;;;25.80;84.70;;;26.90;58.94;100879.03;5065645;28;20106;-88
2022/07/13 09:48:39;;;;;;;5.05;2.60;;;25.90;85.70;;;27.15;56.84;100877.25;5064909;28;20047;-88
2022/07/13 09:51:07;;;;;;;4.97;2.40;;;26.00;84.40;;;27.20;55.11;100877.19;5060657;28;20600;-87
2022/07/13 09:53:36;;;;;;;5.95;2.80;;;26.10;82.00;;;27.15;54.18;100882.84;5052412;28;20099;-88
2022/07/13 09:56:06;;;;;;;7.18;2.80;;;26.20;80.70;;;26.98;54.24;100873.94;5062622;22;20060;-78
2022/07/13 09:58:37;;;;;;;7.78;2.92;;;26.20;80.40;;;26.95;55.29;100874.53;5031674;28;20405;-78
2022/07/13 10:01:04;;;;;;;5.97;2.42;;;26.10;81.70;;;26.95;55.41;100871.75;5032253;28;20037;-78
2022/07/13 10:03:33;;;;;;;7.32;2.63;;;26.20;82.10;;;26.92;55.74;100876.78;5032261;28;20175;-78
2022/07/13 10:06:05;;;;;;;9.23;3.17;;;26.10;82.20;;;26.92;55.80;100879.59;5031986;28;20473;-78
2022/07/13 10:08:33;;;;;;;11.98;3.60;;;26.20;82.10;;;26.93;55.93;100877.63;5031293;28;20046;-78
2022/07/13 10:11:00;;;;;;;9.70;3.38;;;26.20;82.10;;;27.08;53.44;100882.31;5034609;28;20044;-78
2022/07/13 10:13:28;;;;;;;12.50;3.33;;;26.20;81.60;;;27.09;56.58;100883.97;5031992;28;20056;-78
2022/07/13 10:15:55;;;;;;;7.50;2.88;;;26.30;83.50;;;27.05;55.28;100878.09;5025266;28;20038;-78
2022/07/13 10:18:29;;;;;;;11.38;3.72;;;26.30;81.50;;;27.05;56.01;100886.50;5011437;28;20566;-78
2022/07/13 10:21:09;;;;;;;10.90;3.05;;;26.30;81.50;;;27.09;56.44;100892.34;5012116;28;20113;-78
2022/07/13 10:23:39;;;;;;;5.75;2.78;;;26.30;83.00;;;27.06;57.32;100885.38;5010783;28;20149;-78
2022/07/13 10:26:20;;;;;;;10.03;3.07;;;26.30;83.60;;;27.04;56.82;100887.63;5011976;28;20065;-78
2022/07/13 10:29:05;;;;;;;12.10;3.03;;;26.30;83.10;;;27.01;55.70;100890.16;5011166;28;20049;-78